Time;durP1;ratioP1;P1;durP2;ratioP2;P2;SDS_P1;SDS_P2;PMS_P1;PMS_P2;Temp;Humidity;BMP_temperature;BMP_pressure;BME280_temperature;BME280_humidity;BME280_pressure;Samples;Min_cycle;Max_cycle;Signal;HPM_P1;HPM_P2
2023/07/11 00:02:15;;;;;;;10.00;9.02;;;16.50;84.90;;;;;;5053184;28;20180;-91
2023/07/11 00:04:41;;;;;;;14.73;9.50;;;16.50;84.80;;;;;;5053612;28;20290;-91
2023/07/11 00:07:06;;;;;;;13.70;8.77;;;16.50;84.70;;;;;;5053014;28;20199;-91
2023/07/11 00:09:32;;;;;;;12.25;9.15;;;16.40;84.70;;;;;;5053213;28;20192;-90
2023/07/11 00:11:57;;;;;;;15.40;9.52;;;16.40;84.60;;;;;;5053085;28;20176;-90
2023/07/11 00:14:23;;;;;;;9.55;8.68;;;16.30;84.60;;;;;;5053072;28;20214;-90
2023/07/11 00:16:49;;;;;;;11.90;9.30;;;16.20;84.40;;;;;;5053085;28;20314;-91
2023/07/11 00:19:15;;;;;;;11.48;8.95;;;16.00;84.70;;;;;;5054073;28;20261;-91
2023/07/11 00:21:41;;;;;;;10.20;8.82;;;15.80;84.90;;;;;;5052999;28;20678;-90
2023/07/11 00:24:07;;;;;;;9.95;8.93;;;15.80;85.20;;;;;;5052664;28;20576;-90
2023/07/11 00:26:34;;;;;;;13.85;9.10;;;15.80;85.40;;;;;;5052955;28;20553;-90
2023/07/11 00:29:20;;;;;;;10.10;8.95;;;15.70;85.70;;;;;;5052845;28;20697;-90
2023/07/11 00:31:46;;;;;;;14.98;8.90;;;15.60;86.00;;;;;;5052827;28;20618;-90
2023/07/11 00:34:12;;;;;;;19.50;9.40;;;15.50;86.40;;;;;;5052994;28;20281;-90
2023/07/11 00:36:37;;;;;;;9.68;8.63;;;15.50;86.60;;;;;;5052970;28;20176;-90
2023/07/11 00:39:04;;;;;;;10.20;7.82;;;15.50;86.90;;;;;;5052883;28;20271;-90
2023/07/11 00:41:29;;;;;;;12.27;8.18;;;15.30;87.30;;;;;;5052678;28;20176;-90
2023/07/11 00:43:55;;;;;;;17.17;8.25;;;15.30;87.70;;;;;;5052718;28;20195;-90
2023/07/11 00:46:20;;;;;;;8.93;7.95;;;15.20;88.10;;;;;;5052628;28;20183;-90
2023/07/11 00:48:54;;;;;;;14.20;8.60;;;15.20;88.40;;;;;;5052643;28;20186;-90
2023/07/11 00:51:28;;;;;;;11.85;7.68;;;15.20;88.40;;;;;;5052995;28;20160;-90
2023/07/11 00:53:54;;;;;;;16.25;7.57;;;15.20;88.40;;;;;;5052643;28;20319;-90
2023/07/11 00:56:24;;;;;;;12.15;7.40;;;15.20;88.60;;;;;;5052656;28;20203;-90
2023/07/11 00:58:51;;;;;;;16.90;7.72;;;15.20;88.40;;;;;;5052433;28;20217;-89
2023/07/11 01:01:17;;;;;;;18.13;7.53;;;15.30;88.40;;;;;;5052740;28;20183;-90
2023/07/11 01:03:43;;;;;;;19.90;8.73;;;15.30;88.30;;;;;;5053231;28;20191;-90
2023/07/11 01:06:12;;;;;;;11.15;6.80;;;15.40;88.30;;;;;;5053093;28;20172;-90
2023/07/11 01:08:37;;;;;;;11.98;7.05;;;15.40;88.20;;;;;;5052232;28;20190;-90
2023/07/11 01:11:03;;;;;;;11.48;6.88;;;15.40;88.10;;;;;;5052281;28;20635;-90
2023/07/11 01:13:29;;;;;;;12.43;7.32;;;15.40;87.80;;;;;;5053009;28;20667;-90
2023/07/11 01:15:54;;;;;;;17.50;7.45;;;15.40;87.70;;;;;;5052397;28;20172;-89
2023/07/11 01:18:20;;;;;;;13.18;7.45;;;15.40;87.40;;;;;;5052295;28;20676;-90
2023/07/11 01:20:45;;;;;;;13.77;7.05;;;15.40;87.10;;;;;;5052439;28;20214;-90
2023/07/11 01:23:11;;;;;;;11.73;6.78;;;15.40;86.80;;;;;;5052215;28;20196;-89
2023/07/11 01:25:38;;;;;;;10.23;6.55;;;15.40;86.60;;;;;;5052290;28;20644;-90
2023/07/11 01:28:04;;;;;;;7.90;6.45;;;15.40;86.30;;;;;;5052194;28;20176;-90
2023/07/11 01:30:29;;;;;;;11.85;6.88;;;15.40;86.10;;;;;;5052177;28;20262;-90
2023/07/11 01:32:55;;;;;;;10.25;6.70;;;15.30;86.00;;;;;;5052191;28;20635;-90
2023/07/11 01:35:21;;;;;;;11.90;6.68;;;15.30;85.80;;;;;;5052324;28;20169;-90
2023/07/11 01:37:47;;;;;;;13.25;8.02;;;15.30;85.60;;;;;;5052204;28;20176;-90
2023/07/11 01:40:12;;;;;;;13.88;8.50;;;15.30;85.50;;;;;;5052034;28;20652;-90
2023/07/11 01:42:39;;;;;;;16.95;8.95;;;15.30;85.50;;;;;;5051912;28;20179;-90
2023/07/11 01:45:08;;;;;;;18.40;9.65;;;15.20;85.60;;;;;;5051980;28;20191;-90
2023/07/11 01:47:33;;;;;;;16.52;8.75;;;15.10;85.70;;;;;;5052703;28;20280;-90
2023/07/11 01:49:59;;;;;;;16.90;8.77;;;15.10;86.00;;;;;;5051984;28;20227;-90
2023/07/11 01:52:25;;;;;;;16.80;7.75;;;15.10;86.10;;;;;;5052299;28;20176;-90
2023/07/11 01:54:51;;;;;;;13.57;7.72;;;15.10;86.10;;;;;;5055525;28;20302;-90
2023/07/11 01:57:17;;;;;;;17.48;7.80;;;15.10;86.00;;;;;;5055855;28;20171;-90
2023/07/11 01:59:43;;;;;;;20.40;8.40;;;15.10;86.00;;;;;;5055720;28;20667;-90
2023/07/11 02:02:10;;;;;;;21.77;8.48;;;15.10;86.00;;;;;;5055447;28;20176;-90
2023/07/11 02:04:36;;;;;;;20.48;8.50;;;15.20;86.20;;;;;;5055320;28;20200;-90
2023/07/11 02:07:04;;;;;;;22.42;8.63;;;15.20;86.20;;;;;;5055750;28;20655;-90
2023/07/11 02:09:30;;;;;;;18.58;8.48;;;15.20;86.30;;;;;;5056049;28;20727;-90
2023/07/11 02:11:57;;;;;;;29.55;8.82;;;15.10;86.40;;;;;;5056515;28;20176;-90
2023/07/11 02:14:23;;;;;;;21.38;8.27;;;15.10;86.50;;;;;;5056500;28;20299;-91
2023/07/11 02:16:51;;;;;;;11.73;7.30;;;15.00;86.50;;;;;;5055812;28;20222;-90
2023/07/11 02:19:19;;;;;;;17.00;6.90;;;15.00;86.50;;;;;;5055140;28;20554;-90
2023/07/11 02:21:45;;;;;;;15.52;7.72;;;15.00;86.50;;;;;;5055167;28;20180;-90
2023/07/11 02:24:13;;;;;;;13.88;7.65;;;15.00;86.40;;;;;;5054999;28;20203;-90
2023/07/11 02:26:39;;;;;;;24.60;9.13;;;14.90;86.30;;;;;;5055071;28;20180;-90
2023/07/11 02:29:05;;;;;;;30.40;9.30;;;14.90;86.20;;;;;;5055166;28;20238;-90
2023/07/11 02:31:33;;;;;;;11.82;8.40;;;14.90;86.30;;;;;;5055056;28;20652;-90
2023/07/11 02:33:59;;;;;;;24.42;9.27;;;14.80;86.60;;;;;;5055147;28;20629;-90
2023/07/11 02:36:25;;;;;;;22.38;8.90;;;14.70;86.90;;;;;;5055013;28;20208;-90
2023/07/11 02:38:51;;;;;;;26.42;9.18;;;14.70;87.30;;;;;;5054831;28;20172;-90
2023/07/11 02:41:18;;;;;;;27.42;8.60;;;14.60;87.50;;;;;;5055369;28;20195;-90
2023/07/11 02:43:43;;;;;;;32.95;8.25;;;14.60;87.60;;;;;;5054914;28;20241;-90
2023/07/11 02:46:09;;;;;;;30.35;9.50;;;14.60;87.80;;;;;;5054790;28;20172;-90
2023/07/11 02:48:34;;;;;;;28.27;9.10;;;14.60;87.90;;;;;;5054550;28;20306;-90
2023/07/11 02:51:00;;;;;;;26.08;9.00;;;14.60;88.20;;;;;;5054368;28;20239;-90
2023/07/11 02:53:25;;;;;;;24.42;8.48;;;14.50;88.30;;;;;;5054483;28;20195;-90
2023/07/11 02:55:52;;;;;;;35.95;7.75;;;14.50;88.40;;;;;;5054827;28;20647;-90
2023/07/11 02:58:18;;;;;;;37.25;7.85;;;14.40;88.50;;;;;;5054732;28;20172;-90
2023/07/11 03:00:48;;;;;;;41.78;8.70;;;14.50;88.60;;;;;;5054592;28;20179;-90
2023/07/11 03:03:14;;;;;;;46.25;10.60;;;14.50;88.60;;;;;;5054529;28;20204;-90
2023/07/11 03:05:47;;;;;;;45.08;8.48;;;14.40;88.50;;;;;;5054568;28;20183;-90
2023/07/11 03:08:14;;;;;;;34.70;8.30;;;14.30;88.50;;;;;;5054700;28;20188;-90
2023/07/11 03:10:40;;;;;;;41.08;8.35;;;14.20;88.60;;;;;;5054405;28;20245;-90
2023/07/11 03:13:05;;;;;;;25.88;8.18;;;14.20;88.70;;;;;;5054230;28;20200;-90
2023/07/11 03:15:33;;;;;;;34.00;8.50;;;14.20;88.80;;;;;;5054666;28;20180;-89
2023/07/11 03:17:59;;;;;;;39.03;8.63;;;14.30;88.70;;;;;;5054160;28;20654;-90
2023/07/11 03:20:25;;;;;;;27.90;9.03;;;14.30;88.70;;;;;;5054039;28;20212;-90
2023/07/11 03:22:50;;;;;;;31.25;8.27;;;14.40;88.80;;;;;;5053972;28;20558;-89
2023/07/11 03:25:16;;;;;;;16.10;7.25;;;14.50;88.80;;;;;;5055600;28;20631;-90
2023/07/11 03:27:41;;;;;;;17.17;7.63;;;14.60;88.80;;;;;;5054158;28;20248;-90
2023/07/11 03:30:07;;;;;;;27.57;7.77;;;14.70;88.70;;;;;;5054009;28;20221;-90
2023/07/11 03:32:33;;;;;;;28.23;6.90;;;14.70;88.40;;;;;;5054401;28;20258;-90
2023/07/11 03:34:58;;;;;;;14.75;7.65;;;14.60;88.20;;;;;;5054019;28;20196;-90
2023/07/11 03:37:24;;;;;;;22.08;8.00;;;14.70;88.20;;;;;;5053941;28;20263;-90
2023/07/11 03:39:50;;;;;;;28.77;9.25;;;14.80;88.10;;;;;;5054051;28;20183;-90
2023/07/11 03:42:15;;;;;;;22.73;7.43;;;14.80;88.00;;;;;;5053784;28;20180;-90
2023/07/11 03:44:44;;;;;;;27.33;7.35;;;14.80;88.00;;;;;;5054042;28;20200;-89
2023/07/11 03:47:10;;;;;;;24.17;7.47;;;15.00;88.00;;;;;;5053922;28;20230;-90
2023/07/11 03:49:35;;;;;;;15.68;7.20;;;15.10;87.90;;;;;;5054101;28;20236;-90
2023/07/11 03:52:01;;;;;;;17.45;8.93;;;15.20;87.80;;;;;;5054174;28;20180;-89
2023/07/11 03:54:27;;;;;;;17.38;7.55;;;15.30;87.80;;;;;;5053251;28;20562;-89
2023/07/11 03:56:53;;;;;;;20.75;8.73;;;15.30;87.70;;;;;;5054080;28;20180;-87
2023/07/11 03:59:19;;;;;;;16.50;7.63;;;15.40;87.70;;;;;;5053867;28;20690;-89
2023/07/11 04:01:46;;;;;;;13.73;7.28;;;15.60;87.60;;;;;;5053385;28;20199;-89
2023/07/11 04:04:13;;;;;;;18.15;7.43;;;15.60;87.60;;;;;;5053789;28;20230;-90
2023/07/11 04:06:38;;;;;;;24.55;9.00;;;15.50;87.70;;;;;;5053585;28;20176;-90
2023/07/11 04:09:04;;;;;;;13.70;7.38;;;15.60;87.70;;;;;;5053287;28;20218;-90
2023/07/11 04:11:29;;;;;;;15.07;7.13;;;15.60;87.90;;;;;;5053477;28;20207;-90
2023/07/11 04:13:55;;;;;;;14.35;7.50;;;15.60;88.10;;;;;;5053284;28;20203;-90
2023/07/11 04:16:20;;;;;;;14.43;6.80;;;15.60;88.30;;;;;;5053095;28;20175;-90
2023/07/11 04:18:46;;;;;;;21.90;7.05;;;15.60;88.50;;;;;;5053253;28;20176;-90
2023/07/11 04:21:12;;;;;;;18.80;7.25;;;15.60;88.60;;;;;;5053329;28;20173;-90
2023/07/11 04:23:37;;;;;;;18.63;7.20;;;15.70;88.70;;;;;;5053675;28;20671;-90
2023/07/11 04:26:03;;;;;;;14.07;7.07;;;15.70;88.90;;;;;;5053193;28;20262;-90
2023/07/11 04:28:28;;;;;;;15.55;7.63;;;15.70;88.90;;;;;;5053456;28;20245;-90
2023/07/11 04:30:54;;;;;;;19.08;7.45;;;15.70;89.00;;;;;;5053064;28;20698;-90
2023/07/11 04:33:19;;;;;;;17.52;8.23;;;15.70;89.20;;;;;;5052862;28;20188;-90
2023/07/11 04:35:45;;;;;;;18.88;7.68;;;15.80;89.40;;;;;;5053064;28;20207;-90
2023/07/11 04:38:11;;;;;;;20.20;8.10;;;15.80;89.70;;;;;;5052935;28;20180;-90
2023/07/11 04:40:36;;;;;;;18.30;7.55;;;16.00;89.90;;;;;;5053570;28;20176;-90
2023/07/11 04:43:02;;;;;;;12.88;7.28;;;16.00;90.10;;;;;;5052576;28;20196;-90
2023/07/11 04:45:27;;;;;;;18.17;8.20;;;16.20;90.40;;;;;;5052995;28;20237;-90
2023/07/11 04:47:53;;;;;;;17.40;7.70;;;16.30;90.60;;;;;;5052715;28;20176;-90
2023/07/11 04:50:19;;;;;;;19.92;8.07;;;16.40;90.80;;;;;;5052820;28;20265;-90
2023/07/11 04:52:45;;;;;;;19.88;7.63;;;16.60;90.80;;;;;;5052638;28;20183;-90
2023/07/11 04:55:11;;;;;;;19.20;7.65;;;16.60;90.80;;;;;;5053256;28;20192;-90
2023/07/11 04:57:37;;;;;;;25.85;7.45;;;16.60;90.70;;;;;;5052803;28;20172;-90
2023/07/11 05:00:03;;;;;;;17.73;7.30;;;16.70;90.60;;;;;;5052925;28;20207;-90
2023/07/11 05:02:28;;;;;;;16.17;7.45;;;16.60;90.50;;;;;;5052635;28;20667;-90
2023/07/11 05:04:54;;;;;;;10.02;7.05;;;16.70;90.50;;;;;;5052555;28;20210;-90
2023/07/11 05:07:19;;;;;;;15.75;6.97;;;16.70;90.50;;;;;;5052520;28;20168;-90
2023/07/11 05:09:45;;;;;;;22.02;8.18;;;16.70;90.50;;;;;;5052542;28;20238;-90
2023/07/11 05:12:10;;;;;;;16.88;7.15;;;16.60;90.40;;;;;;5052762;28;20176;-90
2023/07/11 05:14:37;;;;;;;11.40;6.45;;;16.70;90.30;;;;;;5052328;28;20196;-90
2023/07/11 05:17:02;;;;;;;12.48;6.97;;;16.70;90.30;;;;;;5052367;28;20172;-90
2023/07/11 05:19:28;;;;;;;13.10;6.63;;;16.70;90.20;;;;;;5052553;28;20249;-90
2023/07/11 05:21:54;;;;;;;12.65;7.13;;;16.70;90.10;;;;;;5052420;28;20179;-90
2023/07/11 05:24:19;;;;;;;12.20;7.05;;;16.80;89.90;;;;;;5052491;28;20200;-90
2023/07/11 05:26:45;;;;;;;14.43;7.25;;;16.80;89.90;;;;;;5052602;28;20172;-91
2023/07/11 05:29:10;;;;;;;12.63;6.75;;;17.00;89.90;;;;;;5055884;28;20207;-90
2023/07/11 05:31:36;;;;;;;11.05;6.80;;;17.10;89.70;;;;;;5056088;28;20172;-90
2023/07/11 05:34:01;;;;;;;10.95;6.57;;;17.20;89.50;;;;;;5056032;28;20196;-90
2023/07/11 05:36:32;;;;;;;11.52;6.97;;;17.30;89.40;;;;;;5056198;28;20176;-90
2023/07/11 05:39:05;;;;;;;17.52;6.90;;;17.40;89.20;;;;;;5056131;28;20172;-90
2023/07/11 05:41:32;;;;;;;10.35;6.32;;;17.60;88.80;;;;;;5055779;28;20176;-90
2023/07/11 05:43:58;;;;;;;7.97;5.80;;;17.80;88.90;;;;;;5056259;28;20203;-90
2023/07/11 05:46:25;;;;;;;15.23;6.05;;;17.90;88.40;;;;;;5055926;28;20169;-90
2023/07/11 05:48:53;;;;;;;12.63;6.45;;;18.00;88.00;;;;;;5055891;28;20182;-90
2023/07/11 05:51:19;;;;;;;10.25;6.30;;;18.20;87.90;;;;;;5056992;28;20172;-90
2023/07/11 05:53:45;;;;;;;8.60;5.35;;;18.30;87.30;;;;;;5055592;28;20550;-90
2023/07/11 05:56:11;;;;;;;13.27;6.03;;;18.40;86.80;;;;;;5055649;28;20165;-90
2023/07/11 05:58:37;;;;;;;9.00;6.05;;;18.40;86.30;;;;;;5055897;28;20175;-91
2023/07/11 06:01:03;;;;;;;11.32;6.30;;;18.60;85.60;;;;;;5055597;28;20183;-90
2023/07/11 06:03:30;;;;;;;10.55;6.00;;;18.70;84.80;;;;;;5056831;28;20283;-90
2023/07/11 06:06:01;;;;;;;11.95;6.47;;;18.80;84.60;;;;;;5055633;28;20651;-90
2023/07/11 06:08:27;;;;;;;8.20;6.28;;;18.90;84.20;;;;;;5055439;28;20263;-90
2023/07/11 06:10:59;;;;;;;9.45;6.18;;;19.00;83.40;;;;;;5055332;28;20211;-91
2023/07/11 06:13:26;;;;;;;11.02;6.72;;;19.10;82.50;;;;;;5055106;28;20196;-90
2023/07/11 06:16:02;;;;;;;11.93;7.45;;;19.20;81.50;;;;;;5055819;28;20176;-91
2023/07/11 06:18:29;;;;;;;9.13;7.13;;;19.20;81.30;;;;;;5055487;28;20203;-90
2023/07/11 06:20:54;;;;;;;12.13;7.18;;;19.40;81.00;;;;;;5056693;28;20204;-91
2023/07/11 06:23:21;;;;;;;19.15;6.78;;;19.50;80.80;;;;;;5055620;28;20633;-90
2023/07/11 06:25:47;;;;;;;10.65;6.32;;;19.50;80.50;;;;;;5055413;28;20172;-91
2023/07/11 06:28:13;;;;;;;12.63;6.30;;;19.60;80.50;;;;;;5056301;28;20553;-90
2023/07/11 06:30:41;;;;;;;8.13;6.10;;;19.70;81.00;;;;;;5054864;28;20286;-87
2023/07/11 06:33:09;;;;;;;10.70;7.05;;;19.70;79.30;;;;;;5055239;28;20192;-90
2023/07/11 06:35:37;;;;;;;12.30;6.82;;;19.80;79.60;;;;;;5054973;28;20182;-90
2023/07/11 06:38:03;;;;;;;10.95;7.00;;;19.90;79.50;;;;;;5054622;28;20172;-90
2023/07/11 06:40:29;;;;;;;10.98;8.07;;;20.00;79.80;;;;;;5055604;28;20647;-88
2023/07/11 06:42:54;;;;;;;9.20;8.30;;;20.20;78.70;;;;;;5054548;28;20206;-90
2023/07/11 06:45:20;;;;;;;10.00;9.20;;;20.30;77.90;;;;;;5054890;28;20695;-91
2023/07/11 06:47:45;;;;;;;12.10;9.05;;;20.50;77.10;;;;;;5054828;28;20233;-91
2023/07/11 06:50:11;;;;;;;11.27;10.30;;;20.50;76.30;;;;;;5054836;28;20282;-91
2023/07/11 06:52:37;;;;;;;11.98;10.68;;;20.60;75.60;;;;;;5055292;28;20180;-91
2023/07/11 06:55:03;;;;;;;11.18;8.48;;;20.70;75.00;;;;;;5053971;28;20590;-90
2023/07/11 06:57:28;;;;;;;11.65;9.90;;;20.80;75.80;;;;;;5054502;28;20176;-91
2023/07/11 06:59:54;;;;;;;14.38;10.40;;;20.70;74.70;;;;;;5054798;28;20180;-91
2023/07/11 07:02:19;;;;;;;10.85;9.77;;;20.80;75.50;;;;;;5054442;28;20172;-91
2023/07/11 07:04:45;;;;;;;12.02;10.85;;;20.80;74.70;;;;;;5054513;28;20687;-91
2023/07/11 07:07:10;;;;;;;12.98;11.30;;;20.80;74.60;;;;;;5054353;28;20171;-91
2023/07/11 07:09:36;;;;;;;12.27;11.27;;;21.00;73.40;;;;;;5055091;28;20553;-89
2023/07/11 07:12:03;;;;;;;12.60;11.40;;;21.10;73.00;;;;;;5054181;28;20176;-89
2023/07/11 07:14:29;;;;;;;13.45;12.32;;;21.10;72.30;;;;;;5053852;28;20619;-91
2023/07/11 07:16:54;;;;;;;13.70;11.52;;;21.10;71.70;;;;;;5055026;28;20180;-91
2023/07/11 07:19:20;;;;;;;12.35;11.25;;;21.20;73.40;;;;;;5054318;28;20179;-90
2023/07/11 07:21:45;;;;;;;13.90;12.27;;;21.30;72.30;;;;;;5055101;28;20230;-90
2023/07/11 07:24:11;;;;;;;12.38;11.35;;;21.40;71.70;;;;;;5054682;28;20567;-90
2023/07/11 07:26:37;;;;;;;13.98;12.80;;;21.40;71.50;;;;;;5053781;28;20647;-90
2023/07/11 07:29:03;;;;;;;11.50;10.70;;;21.30;71.40;;;;;;5054437;28;20180;-91
2023/07/11 07:31:30;;;;;;;12.88;11.57;;;21.50;70.50;;;;;;5055478;28;20255;-92
2023/07/11 07:33:55;;;;;;;14.18;12.82;;;21.50;70.50;;;;;;5056101;28;20196;-91
2023/07/11 07:36:21;;;;;;;13.20;12.10;;;21.50;69.80;;;;;;5054714;28;20225;-91
2023/07/11 07:38:47;;;;;;;13.20;11.45;;;21.70;70.30;;;;;;5053892;28;20172;-90
2023/07/11 07:41:13;;;;;;;14.50;13.02;;;21.70;69.60;;;;;;5053498;28;20249;-91
2023/07/11 07:43:43;;;;;;;13.45;12.35;;;21.70;70.30;;;;;;5053527;28;20208;-90
2023/07/11 07:46:13;;;;;;;14.10;12.85;;;21.90;70.10;;;;;;5053910;28;20556;-90
2023/07/11 07:48:39;;;;;;;14.75;13.35;;;22.00;69.90;;;;;;5053141;28;20256;-90
2023/07/11 07:51:08;;;;;;;14.35;13.15;;;22.20;69.70;;;;;;5052122;28;20294;-91
2023/07/11 07:53:33;;;;;;;12.82;11.93;;;22.30;69.70;;;;;;5052939;28;20199;-90
2023/07/11 07:56:13;;;;;;;15.27;14.10;;;22.40;68.40;;;;;;5053548;28;20225;-90
2023/07/11 07:58:39;;;;;;;14.45;13.32;;;22.40;67.40;;;;;;5053200;28;20628;-91
2023/07/11 08:01:06;;;;;;;15.68;14.23;;;22.50;67.70;;;;;;5053496;28;20180;-90
2023/07/11 08:03:36;;;;;;;16.42;15.25;;;22.60;68.80;;;;;;5053415;28;20243;-91
2023/07/11 08:06:02;;;;;;;15.05;13.75;;;22.70;67.00;;;;;;5053054;28;20183;-90
2023/07/11 08:08:28;;;;;;;16.55;15.18;;;22.80;68.30;;;;;;5054431;28;20271;-89
2023/07/11 08:10:54;;;;;;;17.25;15.43;;;22.90;67.00;;;;;;5053885;28;20207;-88
2023/07/11 08:13:19;;;;;;;16.10;14.55;;;23.00;66.90;;;;;;5053132;28;20199;-89
2023/07/11 08:15:45;;;;;;;16.25;14.80;;;23.20;67.30;;;;;;5055318;28;20198;-88
2023/07/11 08:18:11;;;;;;;13.88;12.52;;;23.40;66.60;;;;;;5053641;28;20199;-89
2023/07/11 08:20:37;;;;;;;15.77;14.18;;;23.40;63.80;;;;;;5053551;28;20184;-89
2023/07/11 08:23:03;;;;;;;15.02;13.82;;;23.40;64.20;;;;;;5053230;28;20202;-89
2023/07/11 08:25:29;;;;;;;15.43;14.00;;;23.40;65.20;;;;;;5053544;28;20183;-88
2023/07/11 08:27:54;;;;;;;17.80;16.40;;;23.50;65.30;;;;;;5053246;28;20607;-89
2023/07/11 08:30:20;;;;;;;18.25;16.30;;;23.60;65.80;;;;;;5054370;28;20300;-89
2023/07/11 08:32:46;;;;;;;15.48;14.27;;;23.80;65.20;;;;;;5053500;28;20168;-88
2023/07/11 08:35:11;;;;;;;15.25;14.05;;;24.00;64.50;;;;;;5053397;28;20179;-89
2023/07/11 08:37:37;;;;;;;17.05;15.63;;;23.90;64.50;;;;;;5053326;28;20194;-89
2023/07/11 08:40:03;;;;;;;16.33;14.90;;;24.00;63.20;;;;;;5053093;28;20564;-89
2023/07/11 08:42:41;;;;;;;19.50;15.25;;;24.00;62.20;;;;;;5054348;28;20168;-87
2023/07/11 08:45:15;;;;;;;16.80;15.27;;;24.00;62.20;;;;;;5053908;28;20229;-88
2023/07/11 08:47:45;;;;;;;16.85;15.48;;;24.10;63.00;;;;;;5052614;28;20275;-88
2023/07/11 08:50:13;;;;;;;16.15;14.95;;;24.20;62.50;;;;;;5052581;28;20203;-88
2023/07/11 08:52:40;;;;;;;16.95;15.60;;;24.20;61.90;;;;;;5052383;28;20218;-88
2023/07/11 08:55:20;;;;;;;17.35;15.82;;;24.10;61.10;;;;;;5052844;28;20223;-88
2023/07/11 08:57:59;;;;;;;16.63;15.23;;;24.10;61.90;;;;;;5053074;28;20164;-88
2023/07/11 09:00:26;;;;;;;16.63;15.05;;;24.20;62.70;;;;;;5053169;28;20171;-89
2023/07/11 09:03:12;;;;;;;16.15;15.00;;;24.20;60.70;;;;;;5057218;28;20186;-88
2023/07/11 09:05:47;;;;;;;16.75;15.52;;;24.40;62.40;;;;;;5060283;28;20191;-88
2023/07/11 09:08:17;;;;;;;17.75;16.13;;;24.50;60.50;;;;;;5060374;28;20167;-88
2023/07/11 09:10:57;;;;;;;16.98;15.57;;;24.40;61.80;;;;;;5058960;28;20282;-89
2023/07/11 09:13:43;;;;;;;17.63;15.82;;;24.40;62.60;;;;;;5059737;28;20187;-90
2023/07/11 09:16:31;;;;;;;16.63;15.18;;;24.70;62.00;;;;;;5059900;28;20167;-89
2023/07/11 09:19:19;;;;;;;16.30;15.00;;;24.80;59.60;;;;;;5058398;28;20202;-90
2023/07/11 09:22:06;;;;;;;16.38;15.20;;;24.90;59.80;;;;;;5058341;28;20171;-90
2023/07/11 09:24:45;;;;;;;16.10;14.77;;;24.90;59.90;;;;;;5059166;28;20196;-90
2023/07/11 09:27:37;;;;;;;17.88;15.70;;;24.80;60.10;;;;;;5058590;28;20172;-89
2023/07/11 09:30:16;;;;;;;15.68;14.40;;;24.90;59.30;;;;;;5058337;28;20200;-89
2023/07/11 09:32:42;;;;;;;16.20;14.80;;;25.00;58.80;;;;;;5058794;28;20214;-89
2023/07/11 09:35:21;;;;;;;16.15;14.70;;;25.10;59.50;;;;;;5058866;28;20175;-88
2023/07/11 09:37:51;;;;;;;15.60;14.40;;;25.20;59.70;;;;;;5058955;28;20191;-88
2023/07/11 09:40:31;;;;;;;16.00;14.40;;;25.40;58.40;;;;;;5059141;28;20286;-88
2023/07/11 09:42:58;;;;;;;15.52;14.20;;;25.70;58.50;;;;;;5059217;28;20639;-88
2023/07/11 09:45:41;;;;;;;15.48;14.05;;;25.70;57.10;;;;;;5058926;28;20287;-88
2023/07/11 09:48:27;;;;;;;14.68;13.40;;;25.70;56.30;;;;;;5059965;28;20177;-89
2023/07/11 09:50:55;;;;;;;15.23;13.77;;;25.60;55.70;;;;;;5059067;28;20282;-88
2023/07/11 09:53:23;;;;;;;14.77;13.68;;;25.60;55.90;;;;;;5058946;28;20282;-88
2023/07/11 09:55:57;;;;;;;15.55;13.95;;;25.40;56.30;;;;;;5059593;28;20186;-89
2023/07/11 09:58:23;;;;;;;14.55;13.57;;;25.60;55.40;;;;;;5058580;28;20646;-89
2023/07/11 10:00:52;;;;;;;14.77;13.63;;;25.70;56.40;;;;;;5060088;28;20233;-89
2023/07/11 10:03:21;;;;;;;14.98;13.77;;;25.70;55.30;;;;;;5058765;28;20286;-88
2023/07/11 10:05:49;;;;;;;15.30;14.18;;;25.70;55.40;;;;;;5058528;28;20172;-88
2023/07/11 10:08:21;;;;;;;15.70;14.32;;;25.80;55.00;;;;;;5058860;28;20266;-88
2023/07/11 10:10:49;;;;;;;15.65;14.15;;;25.90;55.10;;;;;;5058511;28;20680;-88
2023/07/11 10:13:15;;;;;;;16.25;14.85;;;26.10;53.10;;;;;;5056629;28;20230;-90
2023/07/11 10:15:41;;;;;;;15.23;14.23;;;26.20;53.60;;;;;;5055675;28;20237;-88
2023/07/11 10:18:17;;;;;;;15.45;14.40;;;26.30;53.50;;;;;;5056614;28;20176;-88
2023/07/11 10:20:49;;;;;;;16.33;15.10;;;26.40;54.60;;;;;;5055461;28;20175;-88
2023/07/11 10:23:21;;;;;;;16.48;15.00;;;26.30;52.20;;;;;;5056614;28;20271;-88
2023/07/11 10:25:54;;;;;;;15.93;14.68;;;26.50;51.30;;;;;;5054957;28;20314;-88
2023/07/11 10:28:34;;;;;;;16.20;15.10;;;26.60;52.70;;;;;;5055019;28;20172;-88
2023/07/11 10:31:13;;;;;;;16.35;15.05;;;26.80;51.40;;;;;;5056318;28;20214;-88
2023/07/11 10:34:04;;;;;;;16.00;14.90;;;26.90;51.50;;;;;;5054981;28;20196;-88
2023/07/11 10:36:49;;;;;;;15.25;14.05;;;27.00;51.30;;;;;;5055892;28;20180;-88
2023/07/11 10:39:20;;;;;;;16.40;15.02;;;26.70;48.80;;;;;;5055060;28;20168;-88
2023/07/11 10:41:50;;;;;;;16.02;14.73;;;26.70;52.10;;;;;;5055719;28;20192;-89
2023/07/11 10:44:23;;;;;;;16.20;14.85;;;26.90;51.60;;;;;;5054684;28;20228;-88
2023/07/11 10:46:51;;;;;;;16.10;14.57;;;27.00;51.00;;;;;;5054910;28;20172;-88
2023/07/11 10:49:37;;;;;;;16.40;14.85;;;27.10;50.20;;;;;;5055198;28;20211;-87
2023/07/11 10:52:25;;;;;;;15.02;13.93;;;27.20;51.20;;;;;;5056098;28;20183;-88
2023/07/11 10:55:14;;;;;;;15.00;14.00;;;27.40;52.30;;;;;;5055568;28;20219;-88
2023/07/11 10:57:50;;;;;;;15.15;14.00;;;27.40;50.70;;;;;;5055878;28;20148;-88
2023/07/11 11:00:18;;;;;;;16.98;14.85;;;27.60;50.20;;;;;;5054447;28;20175;-89
2023/07/11 11:02:53;;;;;;;16.42;15.00;;;27.70;50.20;;;;;;5054452;28;20176;-88
2023/07/11 11:05:28;;;;;;;17.27;14.57;;;27.60;48.40;;;;;;5055555;28;20171;-88
2023/07/11 11:08:05;;;;;;;16.65;15.25;;;27.40;49.90;;;;;;5054403;28;20164;-88
2023/07/11 11:10:42;;;;;;;16.08;14.80;;;27.50;49.30;;;;;;5054681;28;20192;-89
2023/07/11 11:13:31;;;;;;;16.30;14.95;;;27.60;50.80;;;;;;5055882;28;20293;-89
2023/07/11 11:16:15;;;;;;;17.05;15.55;;;27.60;49.70;;;;;;5055025;28;20251;-89
2023/07/11 11:19:12;;;;;;;15.98;14.77;;;27.90;50.20;;;;;;5054587;28;20199;-89
2023/07/11 11:21:46;;;;;;;16.67;14.80;;;27.80;50.00;;;;;;5055432;28;20164;-89
2023/07/11 11:24:31;;;;;;;17.02;15.45;;;27.40;50.80;;;;;;5054836;28;20287;-88
2023/07/11 11:27:11;;;;;;;16.25;14.95;;;27.50;48.70;;;;;;5053710;28;20168;-88
2023/07/11 11:30:06;;;;;;;16.45;15.00;;;27.60;49.40;;;;;;5054052;28;20663;-89
2023/07/11 11:32:44;;;;;;;15.57;14.30;;;27.60;50.10;;;;;;5054697;28;20165;-89
2023/07/11 11:35:12;;;;;;;15.93;14.43;;;27.70;49.70;;;;;;5054814;28;20160;-89
2023/07/11 11:38:05;;;;;;;15.90;14.70;;;27.80;49.70;;;;;;5054247;28;20180;-88
2023/07/11 11:40:35;;;;;;;16.77;15.35;;;27.80;49.80;;;;;;5038340;28;20651;-88
2023/07/11 11:43:09;;;;;;;17.00;15.60;;;28.00;51.00;;;;;;5054112;28;20214;-88
2023/07/11 11:45:35;;;;;;;16.75;15.55;;;27.70;50.20;;;;;;5054008;28;20160;-88
2023/07/11 11:48:03;;;;;;;17.42;15.80;;;27.70;47.80;;;;;;5054736;28;20543;-88
2023/07/11 11:50:31;;;;;;;17.33;15.93;;;27.70;49.70;;;;;;5054949;28;20195;-87
2023/07/11 11:53:17;;;;;;;16.88;15.38;;;27.90;49.30;;;;;;5075769;22;20168;-89
2023/07/11 11:55:56;;;;;;;16.88;15.68;;;28.00;49.90;;;;;;5014512;28;20276;-88
2023/07/11 11:58:24;;;;;;;17.17;15.65;;;28.10;49.00;;;;;;5014282;28;20180;-88
2023/07/11 12:00:54;;;;;;;16.92;15.65;;;28.00;48.50;;;;;;5014608;28;20178;-87
2023/07/11 12:03:28;;;;;;;17.20;15.57;;;27.80;48.90;;;;;;5015992;28;20189;-89
2023/07/11 12:05:56;;;;;;;17.13;15.60;;;27.80;49.90;;;;;;5013889;28;20239;-88
2023/07/11 12:08:31;;;;;;;16.33;15.30;;;28.00;49.40;;;;;;5014965;28;20188;-88
2023/07/11 12:11:02;;;;;;;16.70;15.40;;;27.70;49.30;;;;;;5013839;28;20208;-89
2023/07/11 12:13:30;;;;;;;17.80;15.95;;;27.70;48.80;;;;;;5013531;28;20583;-90
2023/07/11 12:15:56;;;;;;;16.50;15.30;;;27.80;49.50;;;;;;5013374;28;20177;-90
2023/07/11 12:18:37;;;;;;;17.20;15.82;;;27.80;49.80;;;;;;5012768;28;20556;-89
2023/07/11 12:21:15;;;;;;;16.85;15.70;;;27.80;51.10;;;;;;5013622;28;20175;-89
2023/07/11 12:23:47;;;;;;;16.98;15.88;;;27.70;49.20;;;;;;5012725;28;20201;-90
2023/07/11 12:26:15;;;;;;;17.23;15.90;;;27.70;49.10;;;;;;5012702;28;20173;-89
2023/07/11 12:28:43;;;;;;;17.25;15.98;;;27.90;50.50;;;;;;5012618;28;20173;-90
2023/07/11 12:31:22;;;;;;;17.20;16.00;;;28.10;51.30;;;;;;5013749;28;20201;-90
2023/07/11 12:34:14;;;;;;;17.77;15.98;;;28.20;50.80;;;;;;5013233;28;20264;-90
2023/07/11 12:36:56;;;;;;;18.30;16.90;;;28.00;49.10;;;;;;5009580;28;20182;-87
2023/07/11 12:39:48;;;;;;;17.10;15.90;;;28.00;48.60;;;;;;5013740;28;20204;-87
2023/07/11 12:42:13;;;;;;;16.88;15.65;;;28.20;50.00;;;;;;5014572;28;20177;-87
2023/07/11 12:44:39;;;;;;;17.45;16.02;;;28.20;51.20;;;;;;5013191;28;20193;-87